createdAt,value
2023-04-03T00:00:39.271Z,78.38
2023-04-03T00:01:38.906Z,77.75
2023-04-03T00:02:38.999Z,78.17
2023-04-03T00:03:38.905Z,78.58
2023-04-03T00:04:38.852Z,78.31
2023-04-03T00:05:38.825Z,78.20
2023-04-03T00:06:38.807Z,78.79
2023-04-03T00:07:38.786Z,78.38
2023-04-03T00:08:38.800Z,78.52
2023-04-03T00:09:38.745Z,79.03
2023-04-03T00:10:39.241Z,78.93
2023-04-03T00:11:38.737Z,78.52
2023-04-03T00:12:38.685Z,78.83
2023-04-03T00:13:38.709Z,78.41
2023-04-03T00:14:38.668Z,79.14
2023-04-03T00:15:38.647Z,79.03
2023-04-03T00:16:38.643Z,78.62
2023-04-03T00:17:38.594Z,79.14
2023-04-03T00:18:38.563Z,79.03
2023-04-03T00:19:38.572Z,78.52
2023-04-03T00:20:39.135Z,78.72
2023-04-03T00:21:38.506Z,79.14
2023-04-03T00:22:38.492Z,78.20
2023-04-03T00:23:38.492Z,79.14
2023-04-03T00:24:38.443Z,79.38
2023-04-03T00:25:38.428Z,78.93
2023-04-03T00:26:38.407Z,79.45
2023-04-03T00:27:38.384Z,79.49
2023-04-03T00:28:38.368Z,79.91
2023-04-03T00:29:38.349Z,79.91
2023-04-03T00:30:38.908Z,79.87
2023-04-03T00:31:38.338Z,79.49
2023-04-03T00:32:38.353Z,79.59
2023-04-03T00:33:38.266Z,79.69
2023-04-03T00:34:38.244Z,80.11
2023-04-03T00:35:38.286Z,79.91
2023-04-03T00:36:38.300Z,79.91
2023-04-03T00:37:38.208Z,79.59
2023-04-03T00:38:38.160Z,79.91
2023-04-03T00:39:38.158Z,79.91
2023-04-03T00:40:38.520Z,80.43
2023-04-03T00:41:38.103Z,80.32
2023-04-03T00:42:38.151Z,80.77
2023-04-03T00:43:38.061Z,80.98
2023-04-03T00:44:38.037Z,81.19
2023-04-03T00:45:38.023Z,80.57
2023-04-03T00:46:38.053Z,80.77
2023-04-03T00:47:38.001Z,81.60
2023-04-03T00:48:37.966Z,81.71
2023-04-03T00:49:37.938Z,81.50
2023-04-03T00:50:38.293Z,81.60
2023-04-03T00:51:37.905Z,81.29
2023-04-03T00:52:37.911Z,81.50
2023-04-03T00:53:37.857Z,81.40
2023-04-03T00:54:37.841Z,81.19
2023-04-03T00:55:37.816Z,81.60
2023-04-03T00:56:37.794Z,81.40
2023-04-03T00:57:37.774Z,81.43
2023-04-03T00:58:37.760Z,81.60
2023-04-03T00:59:37.733Z,82.13
2023-04-03T01:00:37.949Z,81.65
2023-04-03T01:01:37.775Z,81.54
2023-04-03T01:02:37.697Z,82.48
2023-04-03T01:03:37.668Z,81.75
2023-04-03T01:04:37.937Z,81.54
2023-04-03T01:05:37.613Z,81.23
2023-04-03T01:06:37.594Z,81.43
2023-04-03T01:07:37.573Z,81.54
2023-04-03T01:08:37.579Z,81.33
2023-04-03T01:09:37.531Z,81.96
2023-04-03T01:10:37.745Z,81.96
2023-04-03T01:11:37.520Z,82.79
2023-04-03T01:12:37.478Z,81.96
2023-04-03T01:13:37.464Z,82.06
2023-04-03T01:14:37.464Z,82.27
2023-04-03T01:15:37.410Z,81.85
2023-04-03T01:16:37.431Z,81.65
2023-04-03T01:17:37.391Z,82.17
2023-04-03T01:18:37.349Z,83.10
2023-04-03T01:19:37.341Z,81.89
2023-04-03T01:20:37.870Z,82.82
2023-04-03T01:21:37.295Z,82.82
2023-04-03T01:22:37.284Z,82.72
2023-04-03T01:23:37.246Z,81.58
2023-04-03T01:24:37.238Z,82.20
2023-04-03T01:25:37.209Z,83.04
2023-04-03T01:26:37.213Z,83.04
2023-04-03T01:27:37.164Z,83.35
2023-04-03T01:28:37.149Z,83.25
2023-04-03T01:29:37.141Z,83.04
2023-04-03T01:30:37.351Z,82.72
2023-04-03T01:31:37.132Z,83.25
2023-04-03T01:32:37.106Z,83.80
2023-04-03T01:33:37.048Z,83.14
2023-04-03T01:34:37.067Z,82.97
2023-04-03T01:35:37.022Z,83.35
2023-04-03T01:36:36.981Z,83.04
2023-04-03T01:37:36.965Z,82.62
2023-04-03T01:38:36.938Z,83.07
2023-04-03T01:39:36.950Z,83.49
2023-04-03T01:40:37.127Z,83.18
2023-04-03T01:41:36.877Z,83.49
2023-04-03T01:42:36.871Z,83.07
2023-04-03T01:43:36.837Z,82.87
2023-04-03T01:44:36.870Z,83.39
2023-04-03T01:45:36.862Z,83.59
2023-04-03T01:46:36.775Z,83.39
2023-04-03T01:47:36.802Z,83.91
2023-04-03T01:48:36.733Z,83.28
2023-04-03T01:49:36.712Z,83.70
2023-04-03T01:50:36.908Z,83.49
2023-04-03T01:51:36.688Z,83.91
2023-04-03T01:52:36.680Z,83.42
2023-04-03T01:53:36.694Z,83.80
2023-04-03T01:54:36.663Z,83.42
2023-04-03T01:55:36.667Z,83.42
2023-04-03T01:56:36.627Z,83.53
2023-04-03T01:57:36.654Z,82.80
2023-04-03T01:58:36.529Z,83.32
2023-04-03T01:59:36.507Z,83.22
2023-04-03T02:00:36.634Z,83.22
2023-04-03T02:01:36.556Z,83.74
2023-04-03T02:02:36.483Z,83.01
2023-04-03T02:03:36.469Z,82.70
2023-04-03T02:04:36.408Z,82.70
2023-04-03T02:05:36.379Z,83.25
2023-04-03T02:06:36.416Z,83.63
2023-04-03T02:07:36.349Z,82.84
2023-04-03T02:08:36.319Z,83.36
2023-04-03T02:09:36.306Z,82.84
2023-04-03T02:10:36.422Z,82.38
2023-04-03T02:11:36.254Z,82.17
2023-04-03T02:12:36.262Z,83.04
2023-04-03T02:13:36.250Z,83.36
2023-04-03T02:14:36.254Z,83.25
2023-04-03T02:15:36.176Z,82.10
2023-04-03T02:16:36.178Z,81.90
2023-04-03T02:17:36.171Z,82.17
2023-04-03T02:18:36.133Z,82.48
2023-04-03T02:19:36.089Z,82.42
2023-04-03T02:20:36.330Z,83.04
2023-04-03T02:21:36.045Z,82.70
2023-04-03T02:22:36.026Z,83.47
2023-04-03T02:23:36.009Z,82.84
2023-04-03T02:24:35.986Z,81.96
2023-04-03T02:25:38.504Z,81.90
2023-04-03T02:26:35.940Z,82.42
2023-04-03T02:27:35.917Z,82.31
2023-04-03T02:28:35.897Z,81.90
2023-04-03T02:29:35.877Z,82.94
2023-04-03T02:30:36.167Z,83.36
2023-04-03T02:31:35.886Z,82.53
2023-04-03T02:32:35.875Z,82.10
2023-04-03T02:33:35.798Z,83.04
2023-04-03T02:34:35.789Z,83.15
2023-04-03T02:35:35.765Z,83.15
2023-04-03T02:36:35.733Z,83.25
2023-04-03T02:37:35.723Z,83.04
2023-04-03T02:38:35.691Z,82.87
2023-04-03T02:39:35.683Z,83.15
2023-04-03T02:40:36.081Z,83.40
2023-04-03T02:41:35.640Z,83.61
2023-04-03T02:42:35.675Z,83.36
2023-04-03T02:43:35.604Z,82.84
2023-04-03T02:44:35.569Z,83.40
2023-04-03T02:45:35.551Z,83.67
2023-04-03T02:46:35.557Z,84.09
2023-04-03T02:47:35.545Z,83.71
2023-04-03T02:48:35.536Z,84.12
2023-04-03T02:49:35.462Z,84.12
2023-04-03T02:50:35.805Z,84.12
2023-04-03T02:51:35.431Z,83.92
2023-04-03T02:52:35.403Z,83.92
2023-04-03T02:53:35.377Z,83.50
2023-04-03T02:54:35.374Z,84.12
2023-04-03T02:55:35.345Z,84.12
2023-04-03T02:56:35.348Z,83.92
2023-04-03T02:57:35.324Z,84.02
2023-04-03T02:58:35.281Z,83.92
2023-04-03T02:59:35.261Z,83.81
2023-04-03T03:00:35.764Z,84.55
2023-04-03T03:01:35.256Z,84.34
2023-04-03T03:02:35.294Z,84.27
2023-04-03T03:03:35.168Z,84.65
2023-04-03T03:04:35.164Z,84.65
2023-04-03T03:05:35.126Z,84.48
2023-04-03T03:06:35.110Z,85.06
2023-04-03T03:07:35.089Z,84.96
2023-04-03T03:08:35.066Z,84.75
2023-04-03T03:09:35.081Z,84.86
2023-04-03T03:10:35.251Z,84.96
2023-04-03T03:11:35.015Z,84.96
2023-04-03T03:12:34.987Z,85.00
2023-04-03T03:13:34.971Z,84.89
2023-04-03T03:14:34.941Z,85.00
2023-04-03T03:15:34.920Z,85.00
2023-04-03T03:16:34.959Z,85.21
2023-04-03T03:17:34.887Z,85.42
2023-04-03T03:18:34.875Z,85.63
2023-04-03T03:19:34.832Z,85.52
2023-04-03T03:20:34.994Z,85.83
2023-04-03T03:21:34.797Z,85.21
2023-04-03T03:22:34.832Z,85.11
2023-04-03T03:23:34.748Z,85.52
2023-04-03T03:24:34.730Z,85.52
2023-04-03T03:25:35.086Z,85.31
2023-04-03T03:26:34.688Z,85.63
2023-04-03T03:27:34.673Z,85.94
2023-04-03T03:28:34.682Z,85.52
2023-04-03T03:29:34.633Z,85.31
2023-04-03T03:30:34.608Z,85.83
2023-04-03T03:31:34.664Z,85.52
2023-04-03T03:32:34.605Z,86.05
2023-04-03T03:33:34.540Z,86.05
2023-04-03T03:34:34.525Z,86.25
2023-04-03T03:35:34.574Z,85.88
2023-04-03T03:36:34.478Z,86.08
2023-04-03T03:37:34.451Z,86.40
2023-04-03T03:38:34.464Z,86.51
2023-04-03T03:39:34.441Z,86.51
2023-04-03T03:40:34.397Z,86.40
2023-04-03T03:41:34.377Z,86.40
2023-04-03T03:42:34.349Z,86.51
2023-04-03T03:43:34.336Z,86.51
2023-04-03T03:44:34.326Z,86.40
2023-04-03T03:45:34.352Z,86.40
2023-04-03T03:46:34.289Z,86.51
2023-04-03T03:47:34.300Z,86.29
2023-04-03T03:48:34.252Z,86.61
2023-04-03T03:49:34.229Z,86.51
2023-04-03T03:50:34.183Z,86.71
2023-04-03T03:51:34.155Z,86.82
2023-04-03T03:52:34.136Z,86.92
2023-04-03T03:53:34.123Z,87.02
2023-04-03T03:54:34.132Z,87.02
2023-04-03T03:55:34.375Z,87.13
2023-04-03T03:56:34.056Z,87.13
2023-04-03T03:57:34.058Z,87.23
2023-04-03T03:58:34.022Z,87.17
2023-04-03T03:59:34.002Z,86.92
2023-04-03T04:00:33.973Z,87.02
2023-04-03T04:01:33.999Z,87.17
2023-04-03T04:02:34.095Z,87.38
2023-04-03T04:03:34.052Z,87.59
2023-04-03T04:04:33.885Z,87.48
2023-04-03T04:05:33.932Z,87.48
2023-04-03T04:06:33.856Z,87.59
2023-04-03T04:07:33.837Z,87.48
2023-04-03T04:08:33.807Z,87.59
2023-04-03T04:09:33.786Z,87.48
2023-04-03T04:10:33.773Z,87.48
2023-04-03T04:11:33.791Z,87.17
2023-04-03T04:12:33.744Z,87.27
2023-04-03T04:13:33.702Z,87.48
2023-04-03T04:14:33.676Z,87.38
2023-04-03T04:15:33.663Z,87.59
2023-04-03T04:16:33.673Z,87.38
2023-04-03T04:17:33.679Z,87.59
2023-04-03T04:18:33.591Z,87.48
2023-04-03T04:19:33.567Z,87.38
2023-04-03T04:20:33.548Z,87.38
2023-04-03T04:21:33.524Z,87.13
2023-04-03T04:22:33.522Z,87.17
2023-04-03T04:23:33.489Z,87.69
2023-04-03T04:24:33.463Z,87.90
2023-04-03T04:25:33.440Z,88.32
2023-04-03T04:26:33.427Z,87.90
2023-04-03T04:27:33.425Z,87.90
2023-04-03T04:28:33.405Z,87.80
2023-04-03T04:29:33.356Z,88.32
2023-04-03T04:30:33.339Z,87.90
2023-04-03T04:31:33.360Z,87.90
2023-04-03T04:32:33.345Z,88.11
2023-04-03T04:33:33.328Z,88.53
2023-04-03T04:34:33.265Z,88.32
2023-04-03T04:35:33.266Z,88.32
2023-04-03T04:36:33.325Z,88.21
2023-04-03T04:37:33.205Z,88.21
2023-04-03T04:38:33.166Z,88.11
2023-04-03T04:39:33.186Z,88.42
2023-04-03T04:40:33.120Z,88.42
2023-04-03T04:41:33.103Z,88.32
2023-04-03T04:42:33.085Z,88.78
2023-04-03T04:43:33.090Z,88.95
2023-04-03T04:44:33.039Z,89.09
2023-04-03T04:45:33.020Z,88.95
2023-04-03T04:46:33.042Z,89.30
2023-04-03T04:47:33.040Z,88.88
2023-04-03T04:48:32.996Z,89.20
2023-04-03T04:49:32.934Z,89.40
2023-04-03T04:50:32.933Z,89.26
2023-04-03T04:51:41.097Z,89.09
2023-04-03T04:52:32.864Z,89.40
2023-04-03T04:53:32.854Z,88.88
2023-04-03T04:54:32.840Z,89.61
2023-04-03T04:55:32.810Z,89.40
2023-04-03T04:56:32.778Z,89.51
2023-04-03T04:57:32.896Z,89.72
2023-04-03T04:58:32.735Z,89.61
2023-04-03T04:59:32.760Z,90.14
2023-04-03T05:00:32.734Z,89.40
2023-04-03T05:01:32.695Z,90.24
2023-04-03T05:02:32.684Z,89.83
2023-04-03T05:03:32.644Z,89.20
2023-04-03T05:04:32.640Z,89.40
2023-04-03T05:05:32.625Z,89.30
2023-04-03T05:06:32.597Z,89.30
2023-04-03T05:07:32.549Z,90.03
2023-04-03T05:08:32.522Z,89.40
2023-04-03T05:09:32.511Z,88.88
2023-04-03T05:10:32.481Z,89.20
2023-04-03T05:11:32.472Z,89.83
2023-04-03T05:12:32.442Z,89.45
2023-04-03T05:13:32.430Z,90.39
2023-04-03T05:14:32.406Z,89.72
2023-04-03T05:15:32.378Z,90.18
2023-04-03T05:16:32.442Z,89.55
2023-04-03T05:17:32.380Z,90.18
2023-04-03T05:18:32.319Z,89.93
2023-04-03T05:19:32.301Z,89.86
2023-04-03T05:20:32.269Z,89.55
2023-04-03T05:21:32.249Z,90.18
2023-04-03T05:22:32.258Z,89.93
2023-04-03T05:23:32.224Z,90.34
2023-04-03T05:24:32.190Z,90.08
2023-04-03T05:25:32.167Z,90.45
2023-04-03T05:26:32.141Z,89.93
2023-04-03T05:27:32.157Z,90.24
2023-04-03T05:28:32.153Z,89.86
2023-04-03T05:29:32.078Z,90.08
2023-04-03T05:30:32.061Z,90.14
2023-04-03T05:31:32.094Z,90.03
2023-04-03T05:32:32.018Z,89.20
2023-04-03T05:33:32.000Z,90.45
2023-04-03T05:34:32.007Z,90.03
2023-04-03T05:35:31.962Z,90.24
2023-04-03T05:36:31.926Z,89.20
2023-04-03T05:37:31.912Z,90.14
2023-04-03T05:38:31.889Z,89.83
2023-04-03T05:39:31.913Z,89.40
2023-04-03T05:40:31.844Z,89.51
2023-04-03T05:41:31.821Z,89.40
2023-04-03T05:42:31.797Z,90.31
2023-04-03T05:43:31.775Z,90.09
2023-04-03T05:44:31.755Z,89.78
2023-04-03T05:45:31.813Z,89.99
2023-04-03T05:46:31.723Z,88.99
2023-04-03T05:47:31.753Z,88.84
2023-04-03T05:48:31.666Z,89.05
2023-04-03T05:49:31.648Z,89.15
2023-04-03T05:50:31.625Z,88.67
2023-04-03T05:51:31.616Z,88.32
2023-04-03T05:52:31.596Z,88.53
2023-04-03T05:53:31.562Z,88.64
2023-04-03T05:54:31.559Z,88.21
2023-04-03T05:55:31.518Z,88.17
2023-04-03T05:56:31.505Z,88.32
2023-04-03T05:57:31.590Z,88.21
2023-04-03T05:58:31.455Z,88.42
2023-04-03T05:59:31.462Z,87.59
2023-04-03T06:00:31.413Z,87.27
2023-04-03T06:01:31.399Z,87.48
2023-04-03T06:02:31.415Z,87.59
2023-04-03T06:03:31.427Z,87.69
2023-04-03T06:04:31.429Z,88.01
2023-04-03T06:05:31.328Z,87.76
2023-04-03T06:06:31.291Z,88.17
2023-04-03T06:07:31.277Z,88.39
2023-04-03T06:08:31.241Z,87.96
2023-04-03T06:09:31.265Z,88.28
2023-04-03T06:10:31.208Z,88.28
2023-04-03T06:11:31.192Z,88.17
2023-04-03T06:12:31.161Z,88.13
2023-04-03T06:13:31.151Z,87.51
2023-04-03T06:14:31.186Z,87.19
2023-04-03T06:15:31.097Z,87.19
2023-04-03T06:16:31.106Z,86.88
2023-04-03T06:17:31.091Z,86.88
2023-04-03T06:18:31.086Z,86.36
2023-04-03T06:19:31.018Z,86.25
2023-04-03T06:20:31.037Z,85.94
2023-04-03T06:21:30.970Z,85.94
2023-04-03T06:22:30.951Z,85.69
2023-04-03T06:23:30.936Z,85.69
2023-04-03T06:24:30.907Z,85.69
2023-04-03T06:25:30.888Z,85.38
2023-04-03T06:26:30.865Z,84.96
2023-04-03T06:27:30.853Z,84.96
2023-04-03T06:28:30.827Z,84.55
2023-04-03T06:29:30.830Z,84.02
2023-04-03T06:30:30.812Z,84.44
2023-04-03T06:31:30.906Z,83.61
2023-04-03T06:32:30.756Z,83.29
2023-04-03T06:33:30.717Z,83.98
2023-04-03T06:34:30.725Z,84.44
2023-04-03T06:35:30.684Z,83.98
2023-04-03T06:36:30.654Z,84.40
2023-04-03T06:37:30.642Z,83.88
2023-04-03T06:38:30.621Z,84.19
2023-04-03T06:39:30.597Z,84.82
2023-04-03T06:40:30.580Z,84.50
2023-04-03T06:41:30.587Z,83.57
2023-04-03T06:42:30.529Z,83.57
2023-04-03T06:43:31.071Z,83.84
2023-04-03T06:44:30.484Z,82.63
2023-04-03T06:45:30.489Z,82.42
2023-04-03T06:46:30.580Z,83.25
2023-04-03T06:47:30.434Z,83.22
2023-04-03T06:48:30.399Z,83.22
2023-04-03T06:49:30.380Z,83.11
2023-04-03T06:50:30.362Z,83.53
2023-04-03T06:51:30.346Z,83.07
2023-04-03T06:52:30.321Z,83.11
2023-04-03T06:53:30.298Z,83.07
2023-04-03T06:54:30.282Z,83.49
2023-04-03T06:55:30.262Z,82.03
2023-04-03T06:56:30.268Z,81.62
2023-04-03T06:57:30.267Z,81.51
2023-04-03T06:58:30.195Z,82.14
2023-04-03T06:59:30.173Z,81.30
2023-04-03T07:00:30.153Z,82.03
2023-04-03T07:01:30.144Z,82.97
2023-04-03T07:02:30.166Z,83.18
2023-04-03T07:03:30.090Z,81.72
2023-04-03T07:04:30.097Z,81.41
2023-04-03T07:05:30.078Z,81.51
2023-04-03T07:06:30.034Z,81.41
2023-04-03T07:07:30.011Z,81.72
2023-04-03T07:08:30.048Z,81.37
2023-04-03T07:09:29.973Z,81.37
2023-04-03T07:10:29.947Z,81.05
2023-04-03T07:11:29.977Z,80.95
2023-04-03T07:12:29.903Z,81.43
2023-04-03T07:13:29.886Z,81.33
2023-04-03T07:14:29.875Z,79.46
2023-04-03T07:15:29.843Z,80.40
2023-04-03T07:16:29.874Z,79.87
2023-04-03T07:17:29.856Z,79.98
2023-04-03T07:18:29.786Z,79.46
2023-04-03T07:19:30.029Z,80.67
2023-04-03T07:20:29.749Z,80.60
2023-04-03T07:21:29.722Z,80.91
2023-04-03T07:22:29.699Z,81.40
2023-04-03T07:23:29.683Z,81.50
2023-04-03T07:24:29.665Z,80.98
2023-04-03T07:25:29.671Z,80.57
2023-04-03T07:26:29.648Z,80.57
2023-04-03T07:27:29.606Z,80.63
2023-04-03T07:28:29.574Z,79.59
2023-04-03T07:29:29.558Z,79.80
2023-04-03T07:30:29.590Z,79.69
2023-04-03T07:31:29.543Z,78.86
2023-04-03T07:32:29.517Z,79.07
2023-04-03T07:33:29.477Z,78.17
2023-04-03T07:34:29.455Z,78.86
2023-04-03T07:35:29.436Z,79.17
2023-04-03T07:36:29.416Z,79.59
2023-04-03T07:37:29.396Z,78.76
2023-04-03T07:38:29.374Z,79.49
2023-04-03T07:39:29.354Z,79.97
2023-04-03T07:40:29.333Z,79.69
2023-04-03T07:41:29.344Z,77.72
2023-04-03T07:42:29.295Z,77.83
2023-04-03T07:43:29.321Z,78.55
2023-04-03T07:44:29.263Z,79.07
2023-04-03T07:45:29.272Z,79.35
2023-04-03T07:46:29.264Z,79.45
2023-04-03T07:47:29.208Z,78.48
2023-04-03T07:48:29.197Z,78.06
2023-04-03T07:49:29.162Z,76.82
2023-04-03T07:50:29.135Z,75.74
2023-04-03T07:51:29.174Z,75.85
2023-04-03T07:52:29.163Z,76.09
2023-04-03T07:53:29.115Z,75.95
2023-04-03T07:54:29.060Z,75.32
2023-04-03T07:55:29.042Z,75.12
2023-04-03T07:56:29.021Z,74.91
2023-04-03T07:57:29.025Z,73.97
2023-04-03T07:58:29.004Z,74.18
2023-04-03T07:59:28.980Z,73.97
2023-04-03T08:00:28.944Z,74.70
2023-04-03T08:01:28.927Z,75.09
2023-04-03T08:02:28.907Z,76.02
2023-04-03T08:03:29.040Z,75.92
2023-04-03T08:04:29.025Z,75.88
2023-04-03T08:05:28.844Z,75.05
2023-04-03T08:06:42.018Z,76.06
2023-04-03T08:07:28.812Z,76.47
2023-04-03T08:08:28.820Z,76.26
2023-04-03T08:09:28.767Z,74.77
2023-04-03T08:10:28.755Z,74.53
2023-04-03T08:11:28.730Z,73.70
2023-04-03T08:12:28.713Z,73.80
2023-04-03T08:13:28.697Z,73.91
2023-04-03T08:14:28.739Z,72.88
2023-04-03T08:15:28.673Z,71.32
2023-04-03T08:16:28.662Z,71.73
2023-04-03T08:17:28.656Z,72.67
2023-04-03T08:18:28.602Z,73.49
2023-04-03T08:19:28.587Z,73.28
2023-04-03T08:20:28.617Z,72.77
2023-04-03T08:21:28.549Z,72.84
2023-04-03T08:22:28.565Z,73.28
2023-04-03T08:23:28.525Z,73.05
2023-04-03T08:24:28.495Z,72.77
2023-04-03T08:25:28.476Z,71.11
2023-04-03T08:26:28.490Z,71.63
2023-04-03T08:27:28.472Z,72.08
2023-04-03T08:28:28.429Z,71.32
2023-04-03T08:29:28.456Z,72.46
2023-04-03T08:30:28.394Z,71.59
2023-04-03T08:31:28.445Z,73.05
2023-04-03T08:32:28.380Z,72.94
2023-04-03T08:33:28.345Z,72.39
2023-04-03T08:34:28.342Z,72.08
2023-04-03T08:35:28.341Z,71.46
2023-04-03T08:36:28.315Z,72.29
2023-04-03T08:37:28.277Z,71.36
2023-04-03T08:38:28.261Z,71.56
2023-04-03T08:39:28.289Z,71.15
2023-04-03T08:40:28.226Z,72.29
2023-04-03T08:41:28.209Z,71.46
2023-04-03T08:42:28.214Z,71.33
2023-04-03T08:43:28.186Z,71.98
2023-04-03T08:44:28.164Z,70.84
2023-04-03T08:45:28.197Z,71.36
2023-04-03T08:46:28.203Z,71.04
2023-04-03T08:47:28.255Z,71.46
2023-04-03T08:48:28.099Z,70.70
2023-04-03T08:49:28.119Z,70.50
2023-04-03T08:50:29.340Z,70.63
2023-04-03T08:51:28.092Z,71.25
2023-04-03T08:52:28.028Z,71.63
2023-04-03T08:53:28.004Z,71.22
2023-04-03T08:54:27.991Z,71.29
2023-04-03T08:55:28.029Z,70.67
2023-04-03T08:56:27.956Z,69.15
2023-04-03T08:57:28.015Z,69.25
2023-04-03T08:58:27.921Z,69.04
2023-04-03T08:59:27.906Z,69.43
2023-04-03T09:00:27.892Z,69.01
2023-04-03T09:01:27.892Z,69.22
2023-04-03T09:02:27.901Z,69.32
2023-04-03T09:03:28.021Z,69.32
2023-04-03T09:04:27.820Z,69.22
2023-04-03T09:05:27.805Z,69.22
2023-04-03T09:06:27.791Z,66.42
2023-04-03T09:07:27.771Z,67.05
2023-04-03T09:08:27.759Z,67.54
2023-04-03T09:09:27.775Z,67.85
2023-04-03T09:10:27.719Z,67.43
2023-04-03T09:11:27.756Z,67.19
2023-04-03T09:12:27.707Z,66.99
2023-04-03T09:13:27.710Z,67.50
2023-04-03T09:14:27.678Z,67.27
2023-04-03T09:15:37.847Z,66.20
2023-04-03T09:16:27.759Z,65.17
2023-04-03T09:17:27.640Z,65.17
2023-04-03T09:18:27.594Z,64.24
2023-04-03T09:19:27.728Z,63.93
2023-04-03T09:20:27.593Z,64.86
2023-04-03T09:21:27.546Z,65.03
2023-04-03T09:22:27.552Z,65.14
2023-04-03T09:23:27.554Z,65.14
2023-04-03T09:24:27.504Z,64.59
2023-04-03T09:25:27.503Z,64.80
2023-04-03T09:26:27.475Z,65.00
2023-04-03T09:27:27.500Z,64.90
2023-04-03T09:28:27.871Z,63.77
2023-04-03T09:29:27.454Z,64.28
2023-04-03T09:30:27.420Z,65.11
2023-04-03T09:31:27.420Z,65.80
2023-04-03T09:32:27.393Z,65.88
2023-04-03T09:33:27.371Z,64.53
2023-04-03T09:34:27.446Z,63.40
2023-04-03T09:35:39.998Z,62.78
2023-04-03T09:36:27.347Z,63.47
2023-04-03T09:37:27.326Z,62.75
2023-04-03T09:38:27.303Z,61.31
2023-04-03T09:39:27.320Z,62.13
2023-04-03T09:40:27.274Z,61.52
2023-04-03T09:41:27.287Z,62.85
2023-04-03T09:42:27.250Z,64.40
2023-04-03T09:43:27.260Z,62.03
2023-04-03T09:44:27.279Z,62.03
2023-04-03T09:45:27.214Z,63.89
2023-04-03T09:46:27.214Z,64.09
2023-04-03T09:47:27.239Z,64.09
2023-04-03T09:48:27.202Z,63.99
2023-04-03T09:49:27.162Z,63.50
2023-04-03T09:50:27.186Z,63.89
2023-04-03T09:51:27.311Z,64.92
2023-04-03T09:52:27.116Z,63.89
2023-04-03T09:53:27.105Z,62.96
2023-04-03T09:54:27.102Z,63.37
2023-04-03T09:55:27.077Z,63.47
2023-04-03T09:56:27.117Z,62.16
2023-04-03T09:57:27.088Z,62.06
2023-04-03T09:58:29.488Z,61.75
2023-04-03T09:59:27.018Z,63.09
2023-04-03T10:00:27.001Z,62.81
2023-04-03T10:01:27.069Z,63.53
2023-04-03T10:02:27.013Z,63.53
2023-04-03T10:03:26.971Z,62.81
2023-04-03T10:04:26.986Z,61.57
2023-04-03T10:05:26.927Z,61.36
2023-04-03T10:06:26.906Z,61.57
2023-04-03T10:07:26.997Z,62.60
2023-04-03T10:08:26.878Z,62.50
2023-04-03T10:09:26.869Z,61.98
2023-04-03T10:10:26.932Z,61.88
2023-04-03T10:11:26.842Z,62.16
2023-04-03T10:12:26.818Z,61.47
2023-04-03T10:13:26.797Z,61.96
2023-04-03T10:14:26.869Z,61.44
2023-04-03T10:15:26.773Z,62.16
2023-04-03T10:16:26.803Z,61.72
2023-04-03T10:17:26.812Z,61.93
2023-04-03T10:18:26.757Z,61.52
2023-04-03T10:19:26.703Z,61.82
2023-04-03T10:20:26.726Z,63.03
2023-04-03T10:21:27.769Z,61.59
2023-04-03T10:22:26.710Z,60.46
2023-04-03T10:23:26.775Z,60.25
2023-04-03T10:24:26.627Z,60.25
2023-04-03T10:25:26.656Z,59.12
2023-04-03T10:26:26.601Z,58.70
2023-04-03T10:27:26.581Z,59.09
2023-04-03T10:28:26.585Z,60.33
2023-04-03T10:29:26.561Z,60.33
2023-04-03T10:30:26.533Z,60.74
2023-04-03T10:31:26.613Z,59.91
2023-04-03T10:32:26.540Z,60.33
2023-04-03T10:33:26.492Z,59.06
2023-04-03T10:34:26.474Z,58.65
2023-04-03T10:35:26.458Z,58.68
2023-04-03T10:36:26.475Z,57.75
2023-04-03T10:37:26.430Z,58.89
2023-04-03T10:38:26.424Z,58.93
2023-04-03T10:39:26.508Z,59.14
2023-04-03T10:40:26.473Z,59.45
2023-04-03T10:41:26.371Z,58.52
2023-04-03T10:42:26.449Z,58.75
2023-04-03T10:43:26.343Z,57.14
2023-04-03T10:44:26.336Z,57.68
2023-04-03T10:45:26.311Z,58.01
2023-04-03T10:46:26.363Z,59.07
2023-04-03T10:47:26.326Z,60.02
2023-04-03T10:48:26.265Z,59.82
2023-04-03T10:49:26.251Z,58.99
2023-04-03T10:50:26.233Z,59.20
2023-04-03T10:51:26.232Z,60.00
2023-04-03T10:52:26.263Z,60.00
2023-04-03T10:53:26.190Z,60.00
2023-04-03T10:54:26.184Z,59.77
2023-04-03T10:55:26.264Z,60.07
2023-04-03T10:56:26.145Z,60.56
2023-04-03T10:57:26.152Z,59.09
2023-04-03T10:58:26.155Z,59.58
2023-04-03T10:59:26.103Z,58.21
2023-04-03T11:00:26.132Z,56.87
2023-04-03T11:01:26.083Z,57.70
2023-04-03T11:02:27.419Z,58.80
2023-04-03T11:03:26.112Z,57.21
2023-04-03T11:04:26.029Z,57.46
2023-04-03T11:05:26.012Z,58.67
2023-04-03T11:06:26.010Z,58.23
2023-04-03T11:07:25.983Z,56.87
2023-04-03T11:08:26.054Z,56.43
2023-04-03T11:09:25.961Z,54.38
2023-04-03T11:10:25.947Z,53.36
2023-04-03T11:11:26.027Z,52.97
2023-04-03T11:12:25.944Z,52.56
2023-04-03T11:13:25.978Z,53.51
2023-04-03T11:14:25.892Z,53.69
2023-04-03T11:15:25.888Z,53.20
2023-04-03T11:16:25.899Z,53.51
2023-04-03T11:17:25.859Z,53.28
2023-04-03T11:18:25.850Z,53.87
2023-04-03T11:19:25.821Z,54.08
2023-04-03T11:20:25.810Z,53.77
2023-04-03T11:21:25.790Z,54.00
2023-04-03T11:22:25.812Z,54.69
2023-04-03T11:23:28.253Z,55.21
2023-04-03T11:24:25.770Z,54.28
2023-04-03T11:25:25.779Z,52.80
2023-04-03T11:26:25.746Z,53.64
2023-04-03T11:27:25.811Z,53.15
2023-04-03T11:28:25.702Z,53.30
2023-04-03T11:29:34.985Z,54.79
2023-04-03T11:30:25.672Z,55.62
2023-04-03T11:31:25.711Z,55.87
2023-04-03T11:32:25.660Z,55.07
2023-04-03T11:33:25.633Z,55.41
2023-04-03T11:34:25.620Z,56.57
2023-04-03T11:35:25.609Z,57.50
2023-04-03T11:36:29.300Z,58.97
2023-04-03T11:37:25.581Z,59.79
2023-04-03T11:38:25.558Z,59.66
2023-04-03T11:39:25.561Z,60.41
2023-04-03T11:40:25.536Z,59.89
2023-04-03T11:41:25.543Z,59.66
2023-04-03T11:42:25.572Z,58.63
2023-04-03T11:43:25.590Z,59.04
2023-04-03T11:44:25.467Z,58.25
2023-04-03T11:45:25.456Z,58.97
2023-04-03T11:46:25.525Z,58.86
2023-04-03T11:47:25.448Z,58.76
2023-04-03T11:48:25.523Z,58.89
2023-04-03T11:49:25.391Z,57.96
2023-04-03T11:50:25.373Z,57.45
2023-04-03T11:51:25.367Z,57.55
2023-04-03T11:52:25.370Z,57.86
2023-04-03T11:53:25.328Z,58.89
2023-04-03T11:54:26.489Z,58.79
2023-04-03T11:55:25.305Z,59.61
2023-04-03T11:56:25.287Z,58.79
2023-04-03T11:57:25.333Z,58.27
2023-04-03T11:58:25.241Z,58.86
2023-04-03T11:59:25.333Z,58.60
2023-04-03T12:00:25.206Z,57.82
2023-04-03T12:01:26.194Z,55.05
2023-04-03T12:02:25.252Z,55.46
2023-04-03T12:03:25.310Z,56.05
2023-04-03T12:04:25.213Z,54.20
2023-04-03T12:05:25.135Z,55.41
2023-04-03T12:06:25.113Z,55.85
2023-04-03T12:07:25.100Z,54.97
2023-04-03T12:08:25.088Z,54.02
2023-04-03T12:09:25.114Z,53.61
2023-04-03T12:10:32.383Z,52.80
2023-04-03T12:11:25.054Z,51.54
2023-04-03T12:12:25.043Z,51.98
2023-04-03T12:13:25.021Z,50.74
2023-04-03T12:14:25.006Z,52.61
2023-04-03T12:15:25.137Z,53.87
2023-04-03T12:16:25.000Z,54.92
2023-04-03T12:17:24.960Z,54.18
2023-04-03T12:18:24.938Z,55.13
2023-04-03T12:19:32.256Z,54.82
2023-04-03T12:20:24.943Z,54.30
2023-04-03T12:21:24.906Z,55.02
2023-04-03T12:22:24.892Z,55.13
2023-04-03T12:23:24.865Z,55.51
2023-04-03T12:24:24.903Z,54.87
2023-04-03T12:25:24.830Z,54.95
2023-04-03T12:26:26.586Z,52.69
2023-04-03T12:27:24.813Z,52.47
2023-04-03T12:28:24.796Z,52.85
2023-04-03T12:29:24.808Z,53.59
2023-04-03T12:30:24.777Z,54.00
2023-04-03T12:31:24.895Z,52.87
2023-04-03T12:32:24.759Z,52.47
2023-04-03T12:33:24.760Z,51.98
2023-04-03T12:34:24.707Z,52.69
2023-04-03T12:35:24.721Z,53.64
2023-04-03T12:36:24.704Z,54.36
2023-04-03T12:37:24.719Z,53.59
2023-04-03T12:38:24.649Z,54.51
2023-04-03T12:39:24.668Z,55.26
2023-04-03T12:40:24.623Z,55.77
2023-04-03T12:41:24.612Z,55.15
2023-04-03T12:42:24.624Z,55.36
2023-04-03T12:43:24.580Z,54.56
2023-04-03T12:44:24.578Z,54.56
2023-04-03T12:45:24.734Z,53.45
2023-04-03T12:46:24.678Z,53.45
2023-04-03T12:47:24.688Z,55.13
2023-04-03T12:48:24.511Z,54.53
2023-04-03T12:49:24.489Z,55.46
2023-04-03T12:50:24.484Z,55.66
2023-04-03T12:51:24.488Z,55.66
2023-04-03T12:52:24.443Z,55.26